Time;durP1;ratioP1;P1;durP2;ratioP2;P2;SDS_P1;SDS_P2;PMS_P1;PMS_P2;Temp;Humidity;BMP_temperature;BMP_pressure;BME280_temperature;BME280_humidity;BME280_pressure;Samples;Min_cycle;Max_cycle;Signal;HPM_P1;HPM_P2
2023/07/19 00:01:10;;;;;;;7.43;2.90;;;17.70;99.90;;;;;;6245345;23;20446;-66
2023/07/19 00:03:37;;;;;;;5.15;2.58;;;17.60;99.90;;;;;;6244233;23;20503;-66
2023/07/19 00:06:04;;;;;;;4.72;2.67;;;17.70;99.90;;;;;;6245371;23;20027;-66
2023/07/19 00:08:32;;;;;;;4.63;2.90;;;17.60;99.90;;;;;;6243401;23;20024;-67
2023/07/19 00:11:00;;;;;;;5.32;3.13;;;17.60;99.90;;;;;;6244618;23;20027;-66
2023/07/19 00:13:28;;;;;;;6.05;2.47;;;17.60;99.90;;;;;;6243289;23;20027;-66
2023/07/19 00:15:54;;;;;;;5.47;2.97;;;17.60;99.90;;;;;;6243072;23;20082;-66
2023/07/19 00:18:22;;;;;;;5.28;3.30;;;17.50;99.90;;;;;;6245123;23;20024;-66
2023/07/19 00:20:49;;;;;;;5.85;3.13;;;17.50;99.90;;;;;;6243332;23;20031;-66
2023/07/19 00:23:16;;;;;;;8.55;3.20;;;17.50;99.90;;;;;;6242639;23;20518;-66
2023/07/19 00:25:45;;;;;;;6.97;2.72;;;17.50;99.90;;;;;;6244560;23;20070;-65
2023/07/19 00:28:13;;;;;;;6.95;3.03;;;17.50;99.90;;;;;;6245275;23;20028;-66
2023/07/19 00:30:40;;;;;;;4.97;2.80;;;17.40;99.90;;;;;;6244347;23;20038;-66
2023/07/19 00:33:07;;;;;;;7.50;2.83;;;17.40;99.90;;;;;;6245419;23;20066;-65
2023/07/19 00:35:34;;;;;;;5.00;2.83;;;17.40;99.90;;;;;;6245156;23;20070;-65
2023/07/19 00:38:01;;;;;;;10.45;3.45;;;17.40;99.90;;;;;;6244447;23;20082;-65
2023/07/19 00:40:28;;;;;;;5.35;3.20;;;17.40;99.90;;;;;;6246576;23;20462;-65
2023/07/19 00:42:57;;;;;;;5.05;3.22;;;17.40;99.90;;;;;;6244983;23;20461;-65
2023/07/19 00:45:26;;;;;;;5.85;3.35;;;17.50;99.90;;;;;;6246221;23;20028;-67
2023/07/19 00:47:54;;;;;;;5.40;3.08;;;17.40;99.90;;;;;;6246565;23;20473;-67
2023/07/19 00:50:23;;;;;;;6.28;2.95;;;17.40;99.90;;;;;;6245368;23;20086;-67
2023/07/19 00:52:52;;;;;;;4.95;2.60;;;17.40;99.90;;;;;;6244412;23;20074;-67
2023/07/19 00:55:20;;;;;;;6.13;3.40;;;17.50;99.90;;;;;;6246947;23;20095;-67
2023/07/19 00:57:47;;;;;;;7.22;3.35;;;17.50;99.90;;;;;;6244979;23;20381;-66
2023/07/19 01:00:14;;;;;;;5.70;3.88;;;17.50;99.90;;;;;;6246080;23;20028;-67
2023/07/19 01:02:44;;;;;;;5.80;3.58;;;17.50;99.90;;;;;;6245050;23;20478;-68
2023/07/19 01:05:11;;;;;;;5.68;3.13;;;17.50;99.90;;;;;;6246026;23;20028;-67
2023/07/19 01:07:38;;;;;;;6.75;3.60;;;17.50;99.90;;;;;;6244931;23;20058;-66
2023/07/19 01:10:07;;;;;;;7.45;3.53;;;17.50;99.90;;;;;;6246335;23;20062;-66
2023/07/19 01:12:34;;;;;;;6.68;3.40;;;17.50;99.90;;;;;;6246002;23;20024;-67
2023/07/19 01:15:02;;;;;;;8.13;3.30;;;17.50;99.90;;;;;;6244759;23;20074;-67
2023/07/19 01:17:29;;;;;;;9.93;3.60;;;17.50;99.90;;;;;;6244908;23;20024;-63
2023/07/19 01:19:57;;;;;;;7.90;3.20;;;17.50;99.90;;;;;;6244070;23;20020;-69
2023/07/19 01:22:29;;;;;;;4.38;2.88;;;17.50;99.90;;;;;;6244934;23;20028;-68
2023/07/19 01:24:56;;;;;;;5.53;3.00;;;17.40;99.90;;;;;;6246539;23;20053;-68
2023/07/19 01:27:23;;;;;;;5.13;3.28;;;17.50;99.90;;;;;;6243976;23;20409;-67
2023/07/19 01:29:50;;;;;;;7.53;3.40;;;17.40;99.90;;;;;;6244683;23;20082;-67
2023/07/19 01:32:17;;;;;;;6.63;3.53;;;17.40;99.90;;;;;;6244775;23;20090;-67
2023/07/19 01:34:44;;;;;;;4.20;2.88;;;17.40;99.90;;;;;;6245245;23;20462;-66
2023/07/19 01:37:11;;;;;;;7.10;3.22;;;17.40;99.90;;;;;;6244222;23;20027;-66
2023/07/19 01:39:39;;;;;;;8.63;3.50;;;17.40;99.90;;;;;;6246460;23;20028;-67
2023/07/19 01:42:07;;;;;;;6.28;3.00;;;17.40;99.90;;;;;;6245583;22;20031;-66
2023/07/19 01:44:34;;;;;;;5.72;3.38;;;17.40;99.90;;;;;;6246187;23;20520;-66
2023/07/19 01:47:01;;;;;;;5.35;2.95;;;17.40;99.90;;;;;;6246496;23;20024;-66
2023/07/19 01:49:28;;;;;;;7.28;3.22;;;17.40;99.90;;;;;;6245599;23;20028;-66
2023/07/19 01:51:55;;;;;;;5.50;3.20;;;17.30;99.90;;;;;;6245962;23;20394;-66
2023/07/19 01:54:22;;;;;;;7.75;3.30;;;17.30;99.90;;;;;;6246141;23;20027;-65
2023/07/19 01:56:50;;;;;;;8.98;4.00;;;17.30;99.90;;;;;;6244542;23;20020;-65
2023/07/19 01:59:17;;;;;;;5.10;3.50;;;17.30;99.90;;;;;;6246515;23;20350;-65
2023/07/19 02:01:45;;;;;;;8.43;3.53;;;17.20;99.90;;;;;;6245471;23;20417;-66
2023/07/19 02:04:12;;;;;;;5.97;3.80;;;17.20;99.90;;;;;;6246403;23;20044;-65
2023/07/19 02:06:38;;;;;;;9.27;3.83;;;17.10;99.90;;;;;;6244450;23;20078;-65
2023/07/19 02:09:05;;;;;;;8.57;4.43;;;17.10;99.90;;;;;;6243715;23;20020;-65
2023/07/19 02:11:34;;;;;;;7.25;3.90;;;17.10;99.90;;;;;;6245842;23;20071;-65
2023/07/19 02:14:02;;;;;;;6.88;3.85;;;17.10;99.90;;;;;;6245737;23;20100;-66
2023/07/19 02:16:29;;;;;;;6.53;4.03;;;17.10;99.90;;;;;;6243413;23;20024;-65
2023/07/19 02:18:56;;;;;;;7.53;3.90;;;17.00;99.90;;;;;;6246171;23;20031;-65
2023/07/19 02:21:23;;;;;;;8.63;4.32;;;17.00;99.90;;;;;;6246078;23;20028;-65
2023/07/19 02:23:51;;;;;;;10.80;4.20;;;17.00;99.90;;;;;;6245354;22;20026;-65
2023/07/19 02:26:18;;;;;;;7.63;4.55;;;16.90;99.90;;;;;;6246028;23;20051;-65
2023/07/19 02:28:45;;;;;;;9.73;4.53;;;16.90;99.90;;;;;;6245732;23;20066;-65
2023/07/19 02:31:13;;;;;;;5.35;3.88;;;16.90;99.90;;;;;;6243298;23;20023;-66
2023/07/19 02:33:40;;;;;;;8.80;3.80;;;16.90;99.90;;;;;;6245922;23;20070;-65
2023/07/19 02:36:07;;;;;;;8.60;4.78;;;16.80;99.90;;;;;;6245898;23;20024;-65
2023/07/19 02:38:34;;;;;;;5.95;4.18;;;16.90;99.90;;;;;;6245156;23;20027;-65
2023/07/19 02:41:02;;;;;;;7.30;4.28;;;16.80;99.90;;;;;;6243982;23;20030;-66
2023/07/19 02:43:29;;;;;;;7.88;5.07;;;16.80;99.90;;;;;;6243975;23;20019;-67
2023/07/19 02:45:57;;;;;;;7.90;4.10;;;16.70;99.90;;;;;;6244980;23;20385;-67
2023/07/19 02:48:25;;;;;;;6.15;4.18;;;16.70;99.90;;;;;;6245760;22;20024;-66
2023/07/19 02:50:52;;;;;;;8.25;4.35;;;16.70;99.90;;;;;;6244863;23;20020;-66
2023/07/19 02:53:19;;;;;;;7.82;4.57;;;16.70;99.90;;;;;;6245861;23;20024;-67
2023/07/19 02:55:47;;;;;;;6.13;4.43;;;16.60;99.90;;;;;;6243876;23;20028;-65
2023/07/19 02:58:14;;;;;;;6.32;4.65;;;16.70;99.90;;;;;;6245195;23;20038;-65
2023/07/19 03:00:42;;;;;;;5.75;4.45;;;16.60;99.90;;;;;;6243954;23;20027;-65
2023/07/19 03:03:09;;;;;;;7.90;4.63;;;16.70;99.90;;;;;;6245727;23;20030;-62
2023/07/19 03:05:39;;;;;;;6.93;4.70;;;16.60;99.90;;;;;;6244869;23;20020;-62
2023/07/19 03:08:07;;;;;;;7.35;4.55;;;16.70;99.90;;;;;;6245424;23;20070;-63
2023/07/19 03:10:33;;;;;;;9.45;5.15;;;16.70;99.90;;;;;;6245515;23;20038;-62
2023/07/19 03:13:00;;;;;;;7.38;4.90;;;16.60;99.90;;;;;;6242818;23;20028;-68
2023/07/19 03:15:32;;;;;;;8.23;4.22;;;16.70;99.90;;;;;;6243793;23;20026;-67
2023/07/19 03:17:59;;;;;;;7.28;5.05;;;16.70;99.90;;;;;;6243825;23;20039;-67
2023/07/19 03:20:27;;;;;;;5.85;4.88;;;16.60;99.90;;;;;;6243033;23;20020;-67
2023/07/19 03:22:56;;;;;;;8.90;5.45;;;16.60;99.90;;;;;;6243464;23;20462;-68
2023/07/19 03:25:23;;;;;;;6.70;4.50;;;16.60;99.90;;;;;;6245296;22;20081;-68
2023/07/19 03:27:50;;;;;;;7.93;4.68;;;16.60;99.90;;;;;;6244476;22;20354;-67
2023/07/19 03:30:18;;;;;;;6.30;5.03;;;16.60;99.90;;;;;;6245162;23;20020;-67
2023/07/19 03:32:45;;;;;;;6.28;4.90;;;16.50;99.90;;;;;;6243152;23;20024;-68
2023/07/19 03:35:12;;;;;;;10.18;5.32;;;16.60;99.90;;;;;;6244380;23;20020;-68
2023/07/19 03:37:44;;;;;;;7.40;5.13;;;16.60;99.90;;;;;;6244831;22;20510;-66
2023/07/19 03:40:13;;;;;;;6.63;4.85;;;16.60;99.90;;;;;;6242294;23;20055;-67
2023/07/19 03:42:40;;;;;;;8.63;5.25;;;16.60;99.90;;;;;;6244597;23;20034;-67
2023/07/19 03:45:08;;;;;;;8.18;5.53;;;16.60;99.90;;;;;;6243331;23;20402;-67
2023/07/19 03:47:35;;;;;;;9.02;5.68;;;16.60;99.90;;;;;;6243774;22;20024;-62
2023/07/19 03:50:02;;;;;;;10.48;4.75;;;16.60;99.90;;;;;;6241598;23;20024;-63
2023/07/19 03:52:29;;;;;;;6.88;3.90;;;16.70;99.90;;;;;;6243364;23;20032;-62
2023/07/19 03:54:57;;;;;;;6.35;4.05;;;16.90;99.90;;;;;;6242831;23;20017;-62
2023/07/19 03:57:25;;;;;;;7.18;4.95;;;17.10;99.90;;;;;;6242359;23;20098;-63
2023/07/19 03:59:52;;;;;;;5.30;3.53;;;17.40;99.90;;;;;;6242124;23;20052;-63
2023/07/19 04:02:20;;;;;;;9.27;5.30;;;17.40;99.90;;;;;;6244015;23;20039;-63
2023/07/19 04:04:47;;;;;;;6.15;3.97;;;17.40;99.90;;;;;;6245798;23;20016;-63
2023/07/19 04:07:14;;;;;;;12.43;5.70;;;17.40;99.90;;;;;;6246406;23;20020;-63
2023/07/19 04:09:40;;;;;;;9.52;5.70;;;17.40;99.90;;;;;;6245278;23;20020;-63
2023/07/19 04:12:08;;;;;;;9.13;5.15;;;17.40;99.90;;;;;;6244343;23;20055;-63
2023/07/19 04:14:37;;;;;;;7.78;5.57;;;17.30;99.90;;;;;;6244132;23;20027;-63
2023/07/19 04:17:04;;;;;;;6.53;5.07;;;17.40;99.90;;;;;;6245761;23;20035;-61
2023/07/19 04:19:31;;;;;;;9.57;5.60;;;17.40;99.90;;;;;;6244187;23;20024;-63
2023/07/19 04:21:58;;;;;;;7.78;5.03;;;17.50;99.90;;;;;;6243657;23;20142;-63
2023/07/19 04:24:25;;;;;;;9.48;5.38;;;17.40;99.90;;;;;;6243470;23;20020;-64
2023/07/19 04:26:52;;;;;;;8.02;4.55;;;17.40;99.90;;;;;;6244257;23;20028;-63
2023/07/19 04:29:19;;;;;;;14.90;6.22;;;17.50;99.90;;;;;;6245333;22;20406;-64
2023/07/19 04:31:48;;;;;;;8.32;5.55;;;17.50;99.90;;;;;;6245472;23;20024;-63
2023/07/19 04:34:15;;;;;;;11.57;5.70;;;17.60;99.90;;;;;;6244459;23;20020;-63
2023/07/19 04:36:44;;;;;;;11.15;5.13;;;17.80;99.90;;;;;;6242710;23;20039;-62
2023/07/19 04:39:11;;;;;;;8.05;5.28;;;17.70;99.90;;;;;;6245789;22;20028;-63
2023/07/19 04:41:38;;;;;;;7.95;4.93;;;17.70;99.90;;;;;;6243268;23;20035;-63
2023/07/19 04:44:05;;;;;;;7.15;5.63;;;17.70;99.90;;;;;;6245096;23;20028;-63
2023/07/19 04:46:32;;;;;;;8.93;5.80;;;17.80;99.90;;;;;;6245384;23;20020;-63
2023/07/19 04:49:00;;;;;;;7.88;5.65;;;17.80;99.90;;;;;;6245951;23;20024;-63
2023/07/19 04:51:27;;;;;;;7.95;4.63;;;17.70;99.90;;;;;;6244435;23;20027;-63
2023/07/19 04:53:55;;;;;;;8.80;5.35;;;17.70;99.90;;;;;;6244184;23;20028;-64
2023/07/19 04:56:22;;;;;;;10.57;5.53;;;17.70;99.90;;;;;;6245281;23;20464;-63
2023/07/19 04:58:49;;;;;;;10.40;5.70;;;17.60;99.90;;;;;;6245332;23;20024;-62
2023/07/19 05:01:16;;;;;;;7.72;5.32;;;17.50;99.90;;;;;;6244997;23;20024;-63
2023/07/19 05:03:42;;;;;;;10.38;5.25;;;17.40;99.90;;;;;;6243952;23;20024;-63
2023/07/19 05:06:11;;;;;;;7.15;4.95;;;17.50;99.90;;;;;;6244567;23;20386;-62
2023/07/19 05:08:38;;;;;;;8.95;5.53;;;17.60;99.90;;;;;;6243253;23;20077;-63
2023/07/19 05:11:05;;;;;;;11.60;5.78;;;17.70;99.90;;;;;;6245412;23;20349;-63
2023/07/19 05:13:32;;;;;;;12.23;5.05;;;17.50;99.90;;;;;;6244222;23;20028;-62
2023/07/19 05:16:01;;;;;;;8.55;5.15;;;17.60;99.90;;;;;;6243752;23;20078;-62
2023/07/19 05:18:28;;;;;;;7.78;4.35;;;17.70;99.90;;;;;;6242781;23;20423;-63
2023/07/19 05:20:55;;;;;;;8.35;4.53;;;17.60;99.90;;;;;;6245613;23;20059;-62
2023/07/19 05:23:24;;;;;;;8.23;4.13;;;17.60;99.90;;;;;;6245187;23;20027;-63
2023/07/19 05:25:50;;;;;;;7.97;4.55;;;17.60;99.90;;;;;;6245021;22;20030;-63
2023/07/19 05:28:20;;;;;;;8.05;4.45;;;17.60;99.90;;;;;;6245418;23;20025;-63
2023/07/19 05:30:47;;;;;;;14.48;4.65;;;17.70;99.90;;;;;;6244952;23;20031;-63
2023/07/19 05:33:14;;;;;;;10.40;5.18;;;17.60;99.90;;;;;;6244470;23;20081;-64
2023/07/19 05:35:42;;;;;;;12.70;4.95;;;17.60;99.90;;;;;;6245466;23;20131;-62
2023/07/19 05:38:09;;;;;;;9.88;4.82;;;17.70;99.90;;;;;;6243382;23;20060;-62
2023/07/19 05:40:37;;;;;;;12.60;4.05;;;17.70;99.90;;;;;;6244789;22;20024;-63
2023/07/19 05:43:04;;;;;;;7.75;4.57;;;17.70;99.90;;;;;;6244010;23;20028;-63
2023/07/19 05:45:32;;;;;;;11.18;4.50;;;17.70;99.90;;;;;;6245146;23;20395;-62
2023/07/19 05:47:59;;;;;;;13.20;5.05;;;17.70;99.90;;;;;;6242212;23;20024;-63
2023/07/19 05:50:27;;;;;;;11.35;4.20;;;17.60;99.90;;;;;;6245182;23;20024;-63
2023/07/19 05:52:55;;;;;;;9.77;5.18;;;17.70;99.90;;;;;;6244818;23;20083;-62
2023/07/19 05:55:21;;;;;;;8.07;4.20;;;17.80;99.90;;;;;;6241220;23;20076;-63
2023/07/19 05:57:50;;;;;;;8.90;4.88;;;17.70;99.90;;;;;;6243474;23;20036;-62
2023/07/19 06:00:24;;;;;;;12.65;4.68;;;17.70;99.90;;;;;;6244910;23;20024;-62
2023/07/19 06:02:51;;;;;;;20.02;6.03;;;17.80;99.90;;;;;;6244928;22;20020;-62
2023/07/19 06:05:19;;;;;;;13.95;4.70;;;17.70;99.90;;;;;;6245914;23;20099;-63
2023/07/19 06:07:46;;;;;;;13.45;4.95;;;17.60;99.90;;;;;;6243476;23;20026;-63
2023/07/19 06:10:14;;;;;;;7.70;4.05;;;17.50;99.90;;;;;;6244126;23;20561;-63
2023/07/19 06:12:43;;;;;;;10.90;4.82;;;17.30;99.90;;;;;;6244146;23;20066;-61
2023/07/19 06:15:12;;;;;;;10.93;4.45;;;17.30;99.90;;;;;;6243265;23;20028;-63
2023/07/19 06:17:39;;;;;;;9.30;4.25;;;17.10;99.90;;;;;;6243988;23;20032;-62
2023/07/19 06:20:07;;;;;;;11.70;5.57;;;17.00;99.90;;;;;;6245984;23;20020;-62
2023/07/19 06:22:34;;;;;;;8.23;3.90;;;16.90;99.90;;;;;;6244857;22;20399;-62
2023/07/19 06:25:01;;;;;;;9.02;3.97;;;16.90;99.90;;;;;;6245911;23;20022;-62
2023/07/19 06:27:28;;;;;;;8.75;4.28;;;16.90;99.90;;;;;;6245872;23;20020;-62
2023/07/19 06:29:55;;;;;;;7.47;4.22;;;17.00;99.90;;;;;;6243380;23;20046;-63
2023/07/19 06:32:23;;;;;;;6.50;3.42;;;16.90;99.90;;;;;;6244058;23;20020;-63
2023/07/19 06:34:50;;;;;;;6.75;3.85;;;17.00;99.90;;;;;;6245673;23;20070;-62
2023/07/19 06:37:17;;;;;;;9.00;3.85;;;17.00;99.90;;;;;;6244723;23;20020;-63
2023/07/19 06:39:46;;;;;;;8.77;3.70;;;17.10;99.90;;;;;;6243726;23;20020;-63
2023/07/19 06:42:13;;;;;;;17.02;4.60;;;17.20;99.90;;;;;;6245496;22;20024;-63
2023/07/19 06:44:40;;;;;;;10.77;4.32;;;17.20;99.90;;;;;;6244858;23;20023;-63
2023/07/19 06:47:07;;;;;;;8.52;3.63;;;17.20;99.90;;;;;;6244046;23;20029;-63
2023/07/19 06:49:35;;;;;;;11.32;3.60;;;17.30;99.90;;;;;;6243782;23;20020;-63
2023/07/19 06:52:02;;;;;;;5.80;2.92;;;17.40;99.90;;;;;;6244779;23;20024;-63
2023/07/19 06:54:29;;;;;;;8.60;3.40;;;17.40;99.90;;;;;;6245491;22;20028;-62
2023/07/19 06:56:56;;;;;;;10.23;4.32;;;17.40;99.90;;;;;;6242957;23;20055;-63
2023/07/19 06:59:23;;;;;;;7.40;3.10;;;17.40;99.90;;;;;;6243691;23;20027;-62
2023/07/19 07:01:50;;;;;;;12.80;4.57;;;17.50;99.90;;;;;;6245482;23;20078;-63
2023/07/19 07:04:17;;;;;;;9.48;4.30;;;17.50;99.90;;;;;;6244282;23;20470;-63
2023/07/19 07:06:45;;;;;;;10.65;4.18;;;17.60;99.90;;;;;;6243719;23;20074;-63
2023/07/19 07:09:14;;;;;;;16.05;4.75;;;17.80;99.90;;;;;;6243400;23;20028;-63
2023/07/19 07:11:41;;;;;;;10.73;3.83;;;17.90;99.90;;;;;;6243113;23;20166;-62
2023/07/19 07:14:10;;;;;;;8.05;3.63;;;18.10;99.90;;;;;;6245368;23;20024;-63
2023/07/19 07:16:37;;;;;;;8.75;3.55;;;18.30;99.90;;;;;;6245082;22;20020;-63
2023/07/19 07:19:04;;;;;;;11.32;3.85;;;18.40;99.90;;;;;;6244631;22;20024;-62
2023/07/19 07:21:31;;;;;;;8.75;2.92;;;18.60;99.90;;;;;;6243434;23;20058;-63
2023/07/19 07:24:00;;;;;;;10.23;3.50;;;18.70;99.90;;;;;;6243537;23;20023;-62
2023/07/19 07:26:27;;;;;;;9.48;2.95;;;18.70;99.90;;;;;;6242574;23;20466;-62
2023/07/19 07:28:54;;;;;;;18.65;4.65;;;18.70;99.90;;;;;;6244978;23;20024;-63
2023/07/19 07:31:21;;;;;;;22.85;3.65;;;18.70;99.90;;;;;;6245211;23;20020;-63
2023/07/19 07:33:48;;;;;;;8.18;2.45;;;18.60;99.90;;;;;;6244372;23;20358;-62
2023/07/19 07:36:15;;;;;;;10.20;2.40;;;18.70;99.90;;;;;;6245597;23;20027;-63
2023/07/19 07:38:42;;;;;;;4.60;2.42;;;18.90;99.90;;;;;;6245076;23;20024;-64
2023/07/19 07:41:11;;;;;;;5.38;2.33;;;19.00;99.90;;;;;;6242687;23;20024;-63
2023/07/19 07:43:38;;;;;;;5.22;2.20;;;19.10;99.90;;;;;;6244515;23;20020;-63
2023/07/19 07:46:05;;;;;;;4.82;2.00;;;19.30;99.90;;;;;;6243515;23;20370;-63
2023/07/19 07:48:32;;;;;;;6.28;2.35;;;19.40;99.90;;;;;;6244866;22;20024;-63
2023/07/19 07:50:59;;;;;;;4.40;2.17;;;19.60;99.90;;;;;;6245039;23;20346;-63
2023/07/19 07:53:26;;;;;;;7.38;2.38;;;19.60;99.90;;;;;;6244491;23;20035;-63
2023/07/19 07:55:53;;;;;;;7.63;2.25;;;19.90;99.90;;;;;;6243021;23;20485;-62
2023/07/19 07:58:22;;;;;;;4.85;1.85;;;20.00;99.90;;;;;;6244931;23;20020;-63
2023/07/19 08:00:49;;;;;;;7.82;2.17;;;20.10;99.90;;;;;;6244361;22;20074;-63
2023/07/19 08:03:16;;;;;;;6.18;2.05;;;20.20;99.90;;;;;;6245186;23;20502;-62
2023/07/19 08:05:43;;;;;;;4.70;1.95;;;20.50;99.90;;;;;;6245201;23;20452;-62
2023/07/19 08:08:10;;;;;;;4.05;1.77;;;21.00;99.90;;;;;;6244451;23;20331;-63
2023/07/19 08:10:40;;;;;;;5.07;1.90;;;21.70;99.90;;;;;;6244996;23;20020;-63
2023/07/19 08:13:07;;;;;;;;;;;22.10;99.90;;;;;;6243534;23;20031;-63
2023/07/19 08:15:36;;;;;;;12.30;3.33;;;22.10;99.90;;;;;;6244309;22;19916;-63
2023/07/19 08:18:03;;;;;;;10.95;2.88;;;22.50;99.90;;;;;;6245213;23;20074;-63
2023/07/19 08:20:30;;;;;;;6.53;2.10;;;22.90;99.90;;;;;;6243148;23;20020;-63
2023/07/19 08:22:57;;;;;;;7.68;1.90;;;23.30;99.90;;;;;;6244267;23;20113;-63
2023/07/19 08:25:24;;;;;;;6.07;1.70;;;23.60;99.90;;;;;;6243099;23;20074;-64
2023/07/19 08:27:51;;;;;;;4.60;1.88;;;24.00;99.90;;;;;;6245166;22;20020;-64
2023/07/19 08:30:18;;;;;;;9.15;2.05;;;24.40;99.90;;;;;;6242449;23;20472;-64
2023/07/19 08:32:47;;;;;;;5.25;2.17;;;25.00;99.90;;;;;;6244837;23;20444;-63
2023/07/19 08:35:15;;;;;;;7.55;2.15;;;24.40;99.90;;;;;;6244868;23;20099;-64
2023/07/19 08:37:43;;;;;;;4.60;1.58;;;24.30;99.90;;;;;;6242481;23;20028;-64
2023/07/19 08:40:12;;;;;;;5.00;1.40;;;24.80;99.90;;;;;;6245039;23;20078;-64
2023/07/19 08:42:39;;;;;;;4.65;1.50;;;25.20;98.20;;;;;;6242311;23;20020;-63
2023/07/19 08:45:08;;;;;;;6.72;2.00;;;25.10;99.30;;;;;;6244922;23;20090;-63
2023/07/19 08:47:36;;;;;;;4.13;1.63;;;24.60;99.40;;;;;;6246290;23;20466;-63
2023/07/19 08:50:07;;;;;;;4.80;1.50;;;24.50;99.70;;;;;;6245628;23;20470;-62
2023/07/19 08:52:34;;;;;;;6.03;1.50;;;24.50;98.80;;;;;;6247008;22;20027;-63
2023/07/19 08:55:02;;;;;;;4.00;1.25;;;24.30;99.20;;;;;;6246685;23;20021;-64
2023/07/19 08:57:30;;;;;;;6.85;1.88;;;24.60;99.40;;;;;;6246243;23;20020;-64
2023/07/19 08:59:57;;;;;;;5.85;1.77;;;24.70;99.60;;;;;;6246797;22;20035;-64
2023/07/19 09:02:25;;;;;;;6.43;1.70;;;24.30;99.40;;;;;;6246535;23;20032;-64
2023/07/19 09:05:14;;;;;;;5.40;1.58;;;24.00;99.50;;;;;;6244019;23;20466;-64
2023/07/19 09:07:42;;;;;;;7.50;1.90;;;23.70;99.40;;;;;;6246870;23;20342;-63
2023/07/19 09:10:10;;;;;;;5.35;1.60;;;23.30;99.90;;;;;;6246681;23;20322;-63
2023/07/19 09:12:38;;;;;;;6.75;1.90;;;23.00;99.90;;;;;;6245847;23;20346;-63
2023/07/19 09:15:07;;;;;;;10.82;2.90;;;22.90;99.90;;;;;;6246263;23;20473;-63
2023/07/19 09:17:38;;;;;;;16.63;3.42;;;22.80;99.90;;;;;;6245964;23;20055;-63
2023/07/19 09:20:06;;;;;;;7.60;1.83;;;22.90;99.90;;;;;;6246507;23;20024;-63
2023/07/19 09:22:37;;;;;;;3.15;1.42;;;22.60;99.90;;;;;;6246294;23;20473;-63
2023/07/19 09:25:05;;;;;;;4.70;1.77;;;22.70;99.90;;;;;;6244004;23;20066;-63
2023/07/19 09:27:33;;;;;;;6.28;1.65;;;22.30;99.90;;;;;;6244615;23;20349;-63
2023/07/19 09:30:02;;;;;;;4.75;1.70;;;22.40;99.90;;;;;;6246383;23;20024;-63
2023/07/19 09:32:29;;;;;;;9.15;1.95;;;22.50;99.90;;;;;;6245794;23;20376;-63
2023/07/19 09:34:58;;;;;;;7.75;2.03;;;23.40;99.90;;;;;;6246173;22;20024;-63
2023/07/19 09:37:25;;;;;;;3.83;1.23;;;24.20;99.90;;;;;;6246466;23;20385;-63
2023/07/19 09:39:54;;;;;;;4.35;1.75;;;24.60;99.90;;;;;;6245395;23;20021;-63
2023/07/19 09:42:21;;;;;;;3.10;1.33;;;24.50;99.90;;;;;;6246199;23;20066;-63
2023/07/19 09:44:49;;;;;;;5.20;1.30;;;24.30;99.90;;;;;;6246294;22;20091;-64
2023/07/19 09:47:18;;;;;;;5.45;1.55;;;23.90;99.90;;;;;;6245581;23;20024;-63
2023/07/19 09:49:45;;;;;;;4.85;1.35;;;23.40;99.90;;;;;;6246068;23;20024;-63
2023/07/19 09:52:17;;;;;;;4.13;1.42;;;23.30;99.90;;;;;;6246231;23;20034;-63
2023/07/19 09:54:44;;;;;;;8.60;1.25;;;23.60;99.90;;;;;;6243700;23;20024;-63
2023/07/19 09:57:13;;;;;;;4.28;1.20;;;24.40;99.90;;;;;;6245379;23;20016;-63
2023/07/19 09:59:45;;;;;;;5.07;1.60;;;25.20;99.90;;;;;;6246246;23;20020;-63
2023/07/19 10:02:13;;;;;;;3.55;1.30;;;25.50;98.70;;;;;;6245949;23;20074;-62
2023/07/19 10:04:42;;;;;;;7.38;1.48;;;25.50;98.20;;;;;;6246242;23;20489;-63
2023/07/19 10:07:11;;;;;;;1.65;0.95;;;25.20;98.10;;;;;;6245366;23;20020;-63
2023/07/19 10:09:39;;;;;;;4.57;1.17;;;24.80;98.10;;;;;;6245886;23;20078;-64
2023/07/19 10:12:09;;;;;;;3.45;1.10;;;24.20;98.60;;;;;;6245104;23;20032;-63
2023/07/19 10:14:37;;;;;;;2.83;1.38;;;23.90;99.00;;;;;;6245489;22;20098;-62
2023/07/19 10:17:07;;;;;;;2.90;1.40;;;23.50;99.70;;;;;;6245856;23;20020;-62
2023/07/19 10:19:35;;;;;;;4.97;1.35;;;23.50;99.90;;;;;;6244418;23;20028;-64
2023/07/19 10:22:07;;;;;;;5.35;1.52;;;23.40;99.90;;;;;;6245293;23;20052;-64
2023/07/19 10:24:35;;;;;;;3.97;1.40;;;23.80;99.90;;;;;;6246235;23;20476;-63
2023/07/19 10:27:04;;;;;;;3.63;1.10;;;24.40;99.70;;;;;;6244115;23;20027;-63
2023/07/19 10:29:43;;;;;;;2.25;1.17;;;24.40;99.30;;;;;;6243472;23;20027;-63
2023/07/19 10:32:10;;;;;;;3.25;1.10;;;24.50;98.40;;;;;;6245514;23;20024;-63
2023/07/19 10:34:38;;;;;;;2.42;1.00;;;24.20;98.90;;;;;;6246102;23;20039;-62
2023/07/19 10:37:06;;;;;;;2.80;0.98;;;23.70;99.10;;;;;;6244883;23;20020;-63
2023/07/19 10:39:34;;;;;;;3.42;1.33;;;23.30;99.60;;;;;;6244112;23;20028;-63
2023/07/19 10:42:01;;;;;;;3.65;1.15;;;23.00;99.90;;;;;;6244880;23;20020;-63
2023/07/19 10:44:28;;;;;;;3.22;1.30;;;22.80;99.90;;;;;;6245703;23;20034;-63
2023/07/19 10:46:57;;;;;;;2.10;1.15;;;22.80;99.90;;;;;;6244138;23;20020;-63
2023/07/19 10:49:24;;;;;;;3.08;0.98;;;23.10;99.90;;;;;;6245073;23;20027;-63
2023/07/19 10:51:55;;;;;;;5.55;1.88;;;23.10;99.90;;;;;;6245686;23;20069;-63
2023/07/19 10:54:22;;;;;;;2.22;1.08;;;23.20;99.90;;;;;;6243925;23;20024;-63
2023/07/19 10:56:50;;;;;;;3.78;1.02;;;23.40;99.90;;;;;;6244553;23;20358;-63
2023/07/19 10:59:17;;;;;;;3.65;1.05;;;23.80;99.90;;;;;;6245805;23;20024;-64
2023/07/19 11:01:45;;;;;;;3.08;1.05;;;24.20;99.30;;;;;;6245619;23;20026;-64
2023/07/19 11:04:13;;;;;;;2.33;0.77;;;24.70;98.60;;;;;;6244925;23;20043;-63
2023/07/19 11:06:54;;;;;;;2.10;0.80;;;25.20;98.00;;;;;;6245642;23;20016;-63
2023/07/19 11:09:22;;;;;;;1.88;1.15;;;25.60;97.30;;;;;;6245605;23;20020;-64
2023/07/19 11:11:50;;;;;;;4.45;1.30;;;26.40;96.90;;;;;;6244838;23;20102;-64
2023/07/19 11:14:31;;;;;;;2.08;0.85;;;26.40;95.70;;;;;;6245543;23;20078;-64
2023/07/19 11:16:58;;;;;;;2.22;0.90;;;26.80;94.70;;;;;;6243483;23;20027;-64
2023/07/19 11:19:37;;;;;;;2.50;0.90;;;27.40;94.70;;;;;;6243057;23;20077;-64
2023/07/19 11:22:04;;;;;;;6.97;1.30;;;28.00;93.20;;;;;;6243570;23;20035;-64
2023/07/19 11:24:39;;;;;;;3.35;0.85;;;27.70;93.40;;;;;;6244837;23;20391;-63
2023/07/19 11:27:07;;;;;;;1.90;0.80;;;28.30;92.50;;;;;;6245443;23;20347;-64
2023/07/19 11:29:33;;;;;;;5.30;1.00;;;28.20;92.80;;;;;;6243708;23;20416;-63
2023/07/19 11:32:20;;;;;;;6.72;1.00;;;28.80;92.60;;;;;;6244697;23;20020;-64
2023/07/19 11:34:51;;;;;;;2.75;1.02;;;29.20;91.00;;;;;;6243606;23;20070;-64
2023/07/19 11:37:22;;;;;;;6.45;1.08;;;29.30;91.30;;;;;;6245208;23;20027;-64
2023/07/19 11:39:50;;;;;;;4.20;1.10;;;29.00;90.90;;;;;;6242938;23;20032;-63
2023/07/19 11:42:43;;;;;;;3.80;1.05;;;29.10;91.00;;;;;;6244788;23;20104;-63
2023/07/19 11:45:11;;;;;;;3.90;1.05;;;29.40;89.40;;;;;;6245427;22;20354;-64
2023/07/19 11:47:39;;;;;;;1.65;0.85;;;29.60;90.20;;;;;;6242714;23;20024;-64
2023/07/19 11:50:09;;;;;;;2.10;0.77;;;29.90;89.80;;;;;;6245396;23;20094;-64
2023/07/19 11:52:47;;;;;;;2.70;0.70;;;30.10;89.30;;;;;;6242704;23;20678;-64
2023/07/19 11:55:16;;;;;;;2.80;0.90;;;30.40;87.70;;;;;;6243493;23;20357;-64
2023/07/19 11:57:44;;;;;;;6.72;1.88;;;30.30;86.60;;;;;;6245130;23;20028;-64
2023/07/19 12:00:14;;;;;;;5.13;0.95;;;30.10;87.50;;;;;;6244441;23;20028;-64
2023/07/19 12:02:43;;;;;;;1.45;0.60;;;30.30;87.40;;;;;;6243454;23;20028;-64
2023/07/19 12:05:13;;;;;;;1.73;0.75;;;30.20;87.20;;;;;;6245184;23;20027;-64
2023/07/19 12:07:40;;;;;;;3.33;1.10;;;29.60;86.30;;;;;;6242579;23;20023;-64
2023/07/19 12:10:08;;;;;;;1.98;0.65;;;29.00;86.40;;;;;;6245043;23;20024;-64
2023/07/19 12:12:36;;;;;;;1.77;0.75;;;28.80;87.00;;;;;;6245184;22;20020;-64
2023/07/19 12:15:07;;;;;;;3.17;0.80;;;28.70;87.30;;;;;;6242656;23;20028;-63
2023/07/19 12:17:36;;;;;;;9.90;1.63;;;28.50;86.80;;;;;;6245235;22;20027;-64
2023/07/19 12:20:04;;;;;;;5.30;1.10;;;28.50;87.20;;;;;;6243295;23;20074;-65
2023/07/19 12:22:33;;;;;;;3.25;0.90;;;28.40;86.60;;;;;;6245685;23;20020;-64
2023/07/19 12:25:00;;;;;;;6.05;1.10;;;28.70;86.90;;;;;;6245286;23;20523;-65
2023/07/19 12:27:27;;;;;;;1.80;0.70;;;28.80;86.80;;;;;;6246635;23;20024;-64
2023/07/19 12:29:55;;;;;;;3.63;0.75;;;29.30;85.30;;;;;;6245303;23;20028;-64
2023/07/19 12:32:22;;;;;;;2.53;0.75;;;28.90;85.40;;;;;;6247056;22;20043;-64
2023/07/19 12:34:49;;;;;;;4.00;0.73;;;29.00;85.70;;;;;;6246304;23;20090;-64
2023/07/19 12:37:16;;;;;;;2.90;1.15;;;28.80;85.80;;;;;;6246869;23;20024;-64
2023/07/19 12:39:45;;;;;;;4.40;0.65;;;28.60;86.00;;;;;;6245127;23;20024;-64
2023/07/19 12:42:12;;;;;;;2.25;0.80;;;28.60;86.20;;;;;;6243967;23;20421;-64
2023/07/19 12:44:41;;;;;;;2.58;0.65;;;28.70;86.30;;;;;;6247090;23;20103;-64
2023/07/19 12:47:08;;;;;;;4.63;1.30;;;28.40;86.10;;;;;;6246784;22;20085;-65
2023/07/19 12:49:36;;;;;;;4.28;0.80;;;28.80;85.70;;;;;;6244455;23;20078;-64